createdAt,value
2022-10-08T00:00:10.990Z,14.70
2022-10-08T00:02:42.625Z,14.70
2022-10-08T00:05:12.761Z,14.70
2022-10-08T00:07:42.713Z,14.70
2022-10-08T00:10:11.175Z,14.60
2022-10-08T00:12:39.743Z,14.60
2022-10-08T00:15:09.662Z,14.60
2022-10-08T00:17:38.081Z,14.60
2022-10-08T00:20:07.187Z,14.60
2022-10-08T00:22:39.841Z,14.60
2022-10-08T00:25:09.369Z,14.60
2022-10-08T00:27:38.311Z,14.60
2022-10-08T00:30:08.389Z,14.60
2022-10-08T00:32:36.774Z,14.70
2022-10-08T00:35:05.748Z,14.80
2022-10-08T00:37:34.307Z,14.90
2022-10-08T00:40:04.946Z,14.80
2022-10-08T00:42:33.476Z,14.70
2022-10-08T00:45:02.590Z,14.60
2022-10-08T00:47:45.385Z,14.60
2022-10-08T00:50:18.295Z,14.70
2022-10-08T00:52:50.503Z,14.60
2022-10-08T00:55:23.772Z,14.60
2022-10-08T00:57:55.861Z,14.50
2022-10-08T01:00:26.907Z,14.50
2022-10-08T01:02:56.332Z,14.50
2022-10-08T01:05:34.958Z,14.50
2022-10-08T01:08:13.762Z,14.50
2022-10-08T01:10:52.810Z,14.40
2022-10-08T01:13:35.267Z,14.40
2022-10-08T01:16:17.678Z,14.40
2022-10-08T01:18:54.132Z,14.50
2022-10-08T01:21:32.006Z,14.40
2022-10-08T01:24:23.481Z,14.40
2022-10-08T01:27:02.145Z,14.40
2022-10-08T01:29:37.782Z,14.40
2022-10-08T01:32:12.183Z,14.30
2022-10-08T01:34:45.979Z,14.30
2022-10-08T01:37:21.697Z,14.30
2022-10-08T01:39:53.418Z,14.40
2022-10-08T01:42:25.121Z,14.30
2022-10-08T01:44:58.389Z,14.30
2022-10-08T01:47:31.108Z,14.30
2022-10-08T01:50:04.015Z,14.40
2022-10-08T01:52:38.763Z,14.40
2022-10-08T01:55:13.312Z,14.40
2022-10-08T01:57:43.353Z,14.40
2022-10-08T02:00:15.827Z,14.40
2022-10-08T02:02:45.359Z,14.40
2022-10-08T02:05:14.085Z,14.40
2022-10-08T02:07:44.328Z,14.50
2022-10-08T02:10:15.416Z,14.40
2022-10-08T02:12:45.524Z,14.40
2022-10-08T02:15:18.718Z,14.30
2022-10-08T02:17:56.561Z,14.30
2022-10-08T02:20:32.349Z,14.30
2022-10-08T02:23:25.032Z,14.30
2022-10-08T02:25:59.642Z,14.30
2022-10-08T02:28:39.884Z,14.20
2022-10-08T02:31:13.733Z,14.20
2022-10-08T02:33:45.630Z,14.20
2022-10-08T02:36:18.452Z,14.20
2022-10-08T02:38:52.900Z,14.20
2022-10-08T02:41:24.842Z,14.20
2022-10-08T02:43:56.532Z,14.10
2022-10-08T02:46:30.553Z,14.10
2022-10-08T02:49:04.138Z,14.00
2022-10-08T02:51:35.697Z,14.00
2022-10-08T02:54:05.344Z,14.00
2022-10-08T02:56:38.835Z,14.00
2022-10-08T02:59:10.838Z,14.00
2022-10-08T03:01:46.491Z,14.00
2022-10-08T03:04:22.918Z,14.00
2022-10-08T03:06:53.582Z,14.00
2022-10-08T03:09:23.855Z,14.00
2022-10-08T03:11:53.955Z,14.00
2022-10-08T03:14:24.394Z,14.00
2022-10-08T03:16:55.111Z,14.10
2022-10-08T03:19:24.139Z,14.10
2022-10-08T03:21:56.032Z,14.10
2022-10-08T03:24:24.885Z,14.00
2022-10-08T03:26:53.952Z,13.90
2022-10-08T03:29:23.099Z,13.90
2022-10-08T03:31:52.162Z,13.90
2022-10-08T03:34:23.036Z,13.80
2022-10-08T03:36:51.651Z,13.80
2022-10-08T03:39:19.826Z,13.90
2022-10-08T03:41:48.284Z,13.90
2022-10-08T03:44:16.572Z,13.80
2022-10-08T03:46:45.599Z,13.70
2022-10-08T03:49:13.796Z,13.60
2022-10-08T03:51:44.795Z,13.60
2022-10-08T03:54:13.240Z,13.50
2022-10-08T03:56:41.677Z,13.50
2022-10-08T03:59:10.745Z,13.60
2022-10-08T04:01:39.215Z,13.60
2022-10-08T04:04:07.735Z,13.50
2022-10-08T04:06:36.519Z,13.50
2022-10-08T04:09:06.295Z,13.50
2022-10-08T04:11:35.241Z,13.60
2022-10-08T04:14:03.664Z,13.60
2022-10-08T04:16:32.249Z,13.60
2022-10-08T04:19:00.593Z,13.60
2022-10-08T04:21:31.744Z,13.50
2022-10-08T04:24:00.305Z,13.50
2022-10-08T04:26:29.995Z,13.40
2022-10-08T04:28:58.680Z,13.40
2022-10-08T04:31:27.212Z,13.40
2022-10-08T04:33:55.947Z,13.40
2022-10-08T04:36:25.652Z,13.40
2022-10-08T04:38:54.489Z,13.40
2022-10-08T04:41:24.181Z,13.30
2022-10-08T04:43:55.562Z,13.30
2022-10-08T04:46:24.127Z,13.30
2022-10-08T04:48:53.954Z,13.30
2022-10-08T04:51:24.381Z,13.30
2022-10-08T04:53:54.835Z,13.20
2022-10-08T04:56:25.380Z,13.20
2022-10-08T04:58:56.197Z,13.20
2022-10-08T05:01:25.720Z,13.20
2022-10-08T05:03:55.392Z,13.30
2022-10-08T05:06:27.317Z,13.30
2022-10-08T05:08:56.229Z,13.20
2022-10-08T05:11:26.245Z,13.20
2022-10-08T05:13:57.927Z,13.10
2022-10-08T05:16:27.494Z,13.00
2022-10-08T05:18:57.342Z,13.00
2022-10-08T05:21:28.057Z,13.00
2022-10-08T05:24:00.949Z,12.90
2022-10-08T05:26:58.238Z,12.90
2022-10-08T05:29:21.860Z,12.80
2022-10-08T05:31:50.323Z,12.80
2022-10-08T05:34:19.026Z,12.80
2022-10-08T05:36:47.306Z,12.80
2022-10-08T05:39:16.611Z,12.80
2022-10-08T05:41:45.083Z,12.80
2022-10-08T05:44:13.853Z,12.80
2022-10-08T05:46:43.714Z,12.80
2022-10-08T05:49:18.851Z,12.70
2022-10-08T05:51:47.758Z,12.80
2022-10-08T05:54:17.445Z,12.80
2022-10-08T05:56:46.008Z,12.80
2022-10-08T05:59:18.970Z,12.80
2022-10-08T06:01:52.057Z,12.80
2022-10-08T06:04:20.517Z,12.80
2022-10-08T06:06:49.771Z,12.90
2022-10-08T06:09:19.638Z,12.90
2022-10-08T06:11:49.771Z,13.00
2022-10-08T06:14:20.486Z,13.00
2022-10-08T06:16:50.266Z,13.00
2022-10-08T06:19:19.024Z,13.00
2022-10-08T06:21:47.207Z,13.00
2022-10-08T06:24:16.019Z,13.00
2022-10-08T06:26:45.573Z,13.00
2022-10-08T06:29:17.182Z,13.00
2022-10-08T06:31:47.087Z,13.00
2022-10-08T06:34:17.571Z,13.10
2022-10-08T06:36:46.041Z,13.10
2022-10-08T06:39:17.685Z,13.10
2022-10-08T06:41:46.437Z,13.00
2022-10-08T06:44:15.790Z,13.10
2022-10-08T06:46:44.804Z,13.10
2022-10-08T06:49:13.326Z,13.10
2022-10-08T06:51:43.354Z,13.10
2022-10-08T06:54:11.602Z,13.10
2022-10-08T06:56:42.534Z,13.10
2022-10-08T06:59:11.324Z,13.10
2022-10-08T07:01:39.968Z,13.20
2022-10-08T07:04:08.662Z,13.20
2022-10-08T07:06:40.244Z,13.20
2022-10-08T07:09:11.105Z,13.20
2022-10-08T07:11:39.905Z,13.20
2022-10-08T07:14:08.482Z,13.20
2022-10-08T07:16:36.986Z,13.20
2022-10-08T07:19:05.650Z,13.20
2022-10-08T07:21:34.128Z,13.30
2022-10-08T07:24:02.917Z,13.30
2022-10-08T07:26:34.514Z,13.30
2022-10-08T07:29:04.900Z,13.30
2022-10-08T07:31:36.480Z,13.40
2022-10-08T07:34:06.699Z,13.50
2022-10-08T07:36:38.587Z,13.50
2022-10-08T07:39:09.532Z,13.50
2022-10-08T07:41:39.947Z,13.40
2022-10-08T07:44:09.318Z,13.40
2022-10-08T07:46:39.236Z,13.50
2022-10-08T07:49:07.486Z,13.40
2022-10-08T07:51:36.632Z,13.40
2022-10-08T07:54:07.588Z,13.60
2022-10-08T07:56:37.660Z,13.70
2022-10-08T07:59:09.193Z,13.60
2022-10-08T08:01:37.491Z,13.50
2022-10-08T08:04:08.243Z,13.60
2022-10-08T08:06:41.259Z,13.80
2022-10-08T08:09:10.850Z,13.90
2022-10-08T08:11:40.217Z,13.80
2022-10-08T08:14:09.790Z,13.80
2022-10-08T08:16:39.341Z,13.80
2022-10-08T08:19:08.205Z,13.70
2022-10-08T08:21:38.864Z,13.70
2022-10-08T08:24:10.897Z,13.90
2022-10-08T08:26:41.511Z,13.90
2022-10-08T08:29:13.111Z,13.90
2022-10-08T08:31:43.835Z,14.00
2022-10-08T08:34:14.892Z,14.10
2022-10-08T08:36:47.464Z,14.10
2022-10-08T08:39:18.237Z,14.20
2022-10-08T08:41:56.207Z,14.30
2022-10-08T08:44:29.700Z,14.50
2022-10-08T08:47:02.731Z,14.40
2022-10-08T08:49:40.307Z,14.50
2022-10-08T08:52:13.699Z,14.50
2022-10-08T08:54:42.280Z,14.60
2022-10-08T08:57:28.058Z,14.70
2022-10-08T09:00:03.711Z,14.80
2022-10-08T09:02:36.954Z,14.90
2022-10-08T09:05:11.445Z,15.10
2022-10-08T09:07:46.964Z,15.40
2022-10-08T09:10:21.526Z,15.60
2022-10-08T09:12:53.831Z,16.00
2022-10-08T09:15:30.381Z,15.80
2022-10-08T09:18:04.077Z,15.80
2022-10-08T09:20:36.677Z,15.40
2022-10-08T09:23:15.061Z,15.40
2022-10-08T09:25:48.359Z,15.50
2022-10-08T09:28:40.181Z,15.20
2022-10-08T09:31:20.189Z,15.10
2022-10-08T09:34:07.486Z,15.20
2022-10-08T09:36:39.144Z,15.20
2022-10-08T09:39:18.609Z,15.20
2022-10-08T09:41:48.953Z,15.30
2022-10-08T09:44:22.237Z,15.30
2022-10-08T09:47:06.124Z,15.30
2022-10-08T09:49:38.898Z,15.30
2022-10-08T09:52:17.077Z,15.40
2022-10-08T09:54:50.375Z,15.30
2022-10-08T09:57:21.872Z,15.30
2022-10-08T09:59:54.313Z,15.30
2022-10-08T10:02:31.921Z,15.30
2022-10-08T10:05:02.539Z,15.20
2022-10-08T10:07:40.547Z,15.20
2022-10-08T10:10:29.043Z,15.10
2022-10-08T10:13:02.641Z,15.10
2022-10-08T10:15:37.467Z,15.10
2022-10-08T10:18:14.264Z,15.00
2022-10-08T10:20:46.879Z,15.00
2022-10-08T10:23:19.190Z,15.20
2022-10-08T10:25:56.250Z,15.30
2022-10-08T10:28:35.457Z,15.40
2022-10-08T10:31:08.506Z,15.30
2022-10-08T10:33:44.681Z,15.20
2022-10-08T10:36:17.369Z,15.20
2022-10-08T10:38:52.885Z,15.10
2022-10-08T10:41:30.076Z,15.20
2022-10-08T10:44:01.522Z,15.00
2022-10-08T10:46:35.585Z,15.10
2022-10-08T10:49:14.111Z,15.00
2022-10-08T10:51:58.678Z,15.00
2022-10-08T10:54:55.760Z,15.00
2022-10-08T10:57:34.774Z,15.20
2022-10-08T11:00:07.406Z,15.20
2022-10-08T11:02:45.360Z,15.20
2022-10-08T11:05:21.895Z,15.20
2022-10-08T11:08:19.552Z,15.40
2022-10-08T11:11:06.519Z,15.50
2022-10-08T11:13:47.574Z,15.60
2022-10-08T11:16:30.760Z,15.50
2022-10-08T11:19:02.243Z,15.60
2022-10-08T11:21:52.123Z,15.60
2022-10-08T11:24:41.609Z,15.70
2022-10-08T11:27:20.962Z,15.90
2022-10-08T11:29:57.315Z,15.90
2022-10-08T11:32:27.275Z,16.10
2022-10-08T11:35:08.940Z,16.30
2022-10-08T11:37:46.161Z,16.30
2022-10-08T11:40:23.717Z,16.30
2022-10-08T11:43:02.065Z,16.20
2022-10-08T11:45:34.455Z,15.90
2022-10-08T11:48:24.814Z,15.90
2022-10-08T11:50:54.149Z,16.00
2022-10-08T11:53:23.849Z,16.20
2022-10-08T11:55:55.371Z,16.10
2022-10-08T11:58:28.004Z,16.10
2022-10-08T12:01:05.972Z,16.00
2022-10-08T12:03:38.036Z,16.00
2022-10-08T12:06:21.077Z,16.10
2022-10-08T12:08:56.248Z,16.10
2022-10-08T12:11:51.122Z,16.20
2022-10-08T12:14:47.421Z,16.30
2022-10-08T12:17:17.535Z,16.40
2022-10-08T12:20:04.684Z,16.30
2022-10-08T12:22:45.377Z,16.40
2022-10-08T12:25:39.212Z,16.30
2022-10-08T12:28:39.923Z,16.20
2022-10-08T12:31:30.037Z,15.90
2022-10-08T12:34:03.775Z,16.00
2022-10-08T12:36:46.828Z,16.10
2022-10-08T12:39:23.330Z,16.10
2022-10-08T12:42:05.281Z,16.10
2022-10-08T12:44:47.589Z,16.30
2022-10-08T12:47:26.752Z,16.40
2022-10-08T12:50:02.222Z,16.50
2022-10-08T12:52:35.250Z,16.60
2022-10-08T12:55:06.513Z,16.80
2022-10-08T12:57:42.325Z,17.00
2022-10-08T13:00:22.209Z,17.30
2022-10-08T13:03:00.800Z,17.70
2022-10-08T13:05:34.373Z,17.90
2022-10-08T13:08:31.793Z,17.80
2022-10-08T13:11:03.553Z,17.60
2022-10-08T13:13:36.611Z,17.30
2022-10-08T13:16:08.366Z,16.90
2022-10-08T13:18:39.031Z,16.80
2022-10-08T13:21:23.856Z,16.70
2022-10-08T13:23:54.242Z,16.60
2022-10-08T13:26:42.869Z,16.50
2022-10-08T13:29:32.478Z,16.40
2022-10-08T13:32:04.601Z,16.40
2022-10-08T13:34:35.701Z,16.40
2022-10-08T13:37:07.693Z,16.60
2022-10-08T13:39:39.516Z,16.80
2022-10-08T13:42:11.287Z,16.70
2022-10-08T13:44:43.004Z,16.70
2022-10-08T13:47:14.097Z,16.50
2022-10-08T13:49:43.983Z,16.40
2022-10-08T13:52:16.257Z,16.40
2022-10-08T13:54:44.832Z,16.40
2022-10-08T13:57:13.785Z,16.20
2022-10-08T13:59:43.503Z,16.30
2022-10-08T14:02:13.685Z,16.30
2022-10-08T14:04:42.902Z,16.30
2022-10-08T14:07:19.974Z,16.40
2022-10-08T14:09:48.593Z,16.50
2022-10-08T14:12:18.330Z,16.40
2022-10-08T14:14:48.072Z,16.50
2022-10-08T14:17:16.814Z,16.50
2022-10-08T14:19:45.173Z,16.60
2022-10-08T14:22:14.590Z,16.60
2022-10-08T14:24:42.724Z,16.60
2022-10-08T14:27:11.296Z,16.70
2022-10-08T14:29:39.529Z,16.70
2022-10-08T14:32:10.625Z,16.80
2022-10-08T14:34:39.283Z,16.70
2022-10-08T14:37:08.527Z,16.70
2022-10-08T14:39:36.971Z,16.80
2022-10-08T14:42:05.440Z,16.90
2022-10-08T14:44:34.191Z,17.00
2022-10-08T14:47:02.511Z,17.00
2022-10-08T14:49:32.484Z,17.00
2022-10-08T14:52:00.795Z,17.00
2022-10-08T14:54:29.291Z,16.90
2022-10-08T14:56:57.761Z,16.90
2022-10-08T14:59:26.192Z,16.80
2022-10-08T15:01:54.955Z,16.80
2022-10-08T15:04:23.244Z,16.80
2022-10-08T15:06:53.140Z,16.80
2022-10-08T15:09:22.184Z,16.70
2022-10-08T15:11:50.409Z,16.70
2022-10-08T15:14:18.965Z,16.80
2022-10-08T15:16:47.189Z,16.70
2022-10-08T15:19:18.706Z,16.70
2022-10-08T15:21:52.491Z,16.70
2022-10-08T15:24:21.124Z,16.60
2022-10-08T15:26:49.391Z,16.70
2022-10-08T15:29:18.151Z,16.70
2022-10-08T15:31:46.415Z,16.70
2022-10-08T15:34:18.563Z,16.70
2022-10-08T15:36:47.435Z,16.80
2022-10-08T15:39:19.092Z,16.70
2022-10-08T15:41:50.106Z,16.70
2022-10-08T15:44:21.597Z,16.70
2022-10-08T15:46:55.871Z,16.60
2022-10-08T15:49:31.434Z,16.50
2022-10-08T15:52:01.296Z,16.40
2022-10-08T15:54:30.971Z,16.40
2022-10-08T15:56:59.305Z,16.30
2022-10-08T15:59:27.780Z,16.20
2022-10-08T16:01:56.290Z,16.10
2022-10-08T16:04:24.981Z,16.10
2022-10-08T16:06:53.544Z,16.00
2022-10-08T16:09:24.158Z,15.90
2022-10-08T16:11:54.637Z,15.80
2022-10-08T16:14:24.915Z,15.80
2022-10-08T16:16:54.602Z,15.70
2022-10-08T16:19:24.947Z,15.70
2022-10-08T16:21:55.178Z,15.60
2022-10-08T16:24:24.513Z,15.50
2022-10-08T16:26:54.617Z,15.40
2022-10-08T16:29:23.095Z,15.40
2022-10-08T16:31:51.334Z,15.30
2022-10-08T16:34:21.240Z,15.20
2022-10-08T16:36:51.067Z,15.10
2022-10-08T16:39:24.477Z,15.00
2022-10-08T16:41:54.482Z,14.90
2022-10-08T16:44:22.983Z,14.80
2022-10-08T16:46:53.407Z,14.80
2022-10-08T16:49:26.261Z,14.70
2022-10-08T16:51:57.806Z,14.60
2022-10-08T16:54:26.787Z,14.50
2022-10-08T16:56:56.947Z,14.50
2022-10-08T16:59:27.552Z,14.40
2022-10-08T17:01:58.235Z,14.40
2022-10-08T17:04:29.294Z,14.40
2022-10-08T17:06:57.974Z,14.30
2022-10-08T17:09:26.786Z,14.30
2022-10-08T17:11:57.185Z,14.30
2022-10-08T17:14:25.967Z,14.30
2022-10-08T17:16:54.531Z,14.30
2022-10-08T17:19:23.137Z,14.20
2022-10-08T17:21:51.499Z,14.20
2022-10-08T17:24:20.091Z,14.20
2022-10-08T17:26:50.116Z,14.10
2022-10-08T17:29:19.804Z,14.10
2022-10-08T17:31:48.725Z,14.10
2022-10-08T17:34:17.075Z,14.00
2022-10-08T17:36:45.841Z,14.00
2022-10-08T17:39:15.364Z,13.90
2022-10-08T17:41:44.936Z,13.90
2022-10-08T17:44:14.492Z,13.90
2022-10-08T17:46:47.147Z,13.90
2022-10-08T17:49:17.442Z,13.80
2022-10-08T17:51:47.484Z,13.80
2022-10-08T17:54:18.547Z,13.70
2022-10-08T17:56:48.167Z,13.70
2022-10-08T17:59:17.439Z,13.60
2022-10-08T18:01:47.450Z,13.60
2022-10-08T18:04:18.693Z,13.50
2022-10-08T18:06:48.678Z,13.40
2022-10-08T18:09:19.675Z,13.40
2022-10-08T18:11:51.220Z,13.40
2022-10-08T18:14:20.593Z,13.30
2022-10-08T18:16:50.745Z,13.30
2022-10-08T18:19:19.586Z,13.30
2022-10-08T18:21:48.563Z,13.20
2022-10-08T18:24:18.360Z,13.30
2022-10-08T18:26:47.143Z,13.20
2022-10-08T18:29:16.151Z,13.20
2022-10-08T18:31:46.723Z,13.20
2022-10-08T18:34:18.674Z,13.20
2022-10-08T18:36:47.597Z,13.20
2022-10-08T18:39:18.464Z,13.20
2022-10-08T18:41:48.832Z,13.10
2022-10-08T18:44:19.158Z,13.10
2022-10-08T18:46:47.546Z,13.10
2022-10-08T18:49:19.399Z,13.10
2022-10-08T18:51:50.557Z,13.10
2022-10-08T18:54:19.371Z,13.10
2022-10-08T18:56:47.724Z,13.00
2022-10-08T18:59:17.857Z,13.00
2022-10-08T19:01:48.180Z,13.00
2022-10-08T19:04:19.816Z,13.00
2022-10-08T19:06:49.714Z,12.90
2022-10-08T19:09:18.437Z,12.90
2022-10-08T19:11:49.979Z,12.80
2022-10-08T19:14:21.169Z,12.80
2022-10-08T19:16:50.974Z,12.80
2022-10-08T19:19:23.057Z,12.70
2022-10-08T19:21:52.907Z,12.70
2022-10-08T19:24:23.195Z,12.70
2022-10-08T19:26:51.976Z,12.70
2022-10-08T19:29:22.309Z,12.60
2022-10-08T19:31:51.608Z,12.60
2022-10-08T19:34:23.301Z,12.60
2022-10-08T19:36:52.376Z,12.60
2022-10-08T19:39:23.066Z,12.60
2022-10-08T19:41:51.970Z,12.50
2022-10-08T19:44:20.349Z,12.40
2022-10-08T19:46:49.688Z,12.40
2022-10-08T19:49:18.196Z,12.30
2022-10-08T19:51:48.243Z,12.40
2022-10-08T19:54:17.414Z,12.30
2022-10-08T19:56:45.535Z,12.30
2022-10-08T19:59:14.572Z,12.20
2022-10-08T20:01:43.670Z,12.20
2022-10-08T20:04:14.164Z,12.20
2022-10-08T20:06:44.519Z,12.20
2022-10-08T20:09:15.094Z,12.20
2022-10-08T20:11:45.103Z,12.10
2022-10-08T20:14:14.821Z,12.10
2022-10-08T20:16:44.529Z,12.10
2022-10-08T20:19:16.691Z,12.10
2022-10-08T20:21:45.628Z,12.00
2022-10-08T20:24:15.658Z,12.00
2022-10-08T20:26:45.808Z,12.00
2022-10-08T20:29:16.475Z,11.90
2022-10-08T20:31:48.982Z,11.90
2022-10-08T20:34:19.036Z,11.80
2022-10-08T20:36:48.977Z,11.70
2022-10-08T20:39:21.287Z,11.70
2022-10-08T20:41:50.429Z,11.70
2022-10-08T20:44:19.441Z,11.60
2022-10-08T20:46:50.211Z,11.60
2022-10-08T20:49:22.342Z,11.60
2022-10-08T20:51:52.531Z,11.60
2022-10-08T20:54:22.377Z,11.60
2022-10-08T20:56:50.984Z,11.60
2022-10-08T20:59:20.849Z,11.50
2022-10-08T21:01:51.145Z,11.60
2022-10-08T21:04:22.652Z,11.50
2022-10-08T21:06:51.961Z,11.50
2022-10-08T21:09:26.190Z,11.40
2022-10-08T21:11:55.151Z,11.40
2022-10-08T21:14:30.096Z,11.40
2022-10-08T21:17:00.111Z,11.30
2022-10-08T21:19:30.365Z,11.30
2022-10-08T21:21:59.247Z,11.30
2022-10-08T21:24:28.773Z,11.30
2022-10-08T21:26:57.269Z,11.30
2022-10-08T21:29:25.702Z,11.30
2022-10-08T21:31:54.211Z,11.30
2022-10-08T21:34:22.746Z,11.30
2022-10-08T21:36:51.064Z,11.30
2022-10-08T21:39:19.404Z,11.30
2022-10-08T21:41:52.515Z,11.20
2022-10-08T21:44:21.088Z,11.20
2022-10-08T21:46:49.436Z,11.20
2022-10-08T21:49:20.947Z,11.10
2022-10-08T21:51:49.519Z,11.00
2022-10-08T21:54:18.421Z,11.00
2022-10-08T21:56:49.251Z,11.00
2022-10-08T21:59:17.759Z,11.00
2022-10-08T22:01:47.830Z,11.00
2022-10-08T22:04:22.940Z,11.00
2022-10-08T22:06:53.092Z,11.00
2022-10-08T22:09:42.557Z,10.90
2022-10-08T22:12:12.539Z,10.90
2022-10-08T22:14:41.593Z,10.90
2022-10-08T22:17:10.035Z,10.90
2022-10-08T22:19:38.805Z,10.90
2022-10-08T22:22:07.725Z,10.90
2022-10-08T22:24:36.199Z,10.90
2022-10-08T22:27:04.925Z,10.80
2022-10-08T22:29:34.778Z,10.70
2022-10-08T22:32:03.178Z,10.50
2022-10-08T22:34:31.977Z,10.50
2022-10-08T22:37:00.601Z,10.40
2022-10-08T22:39:29.214Z,10.40
2022-10-08T22:41:58.131Z,10.30
2022-10-08T22:44:26.664Z,10.30
2022-10-08T22:46:56.215Z,10.20
2022-10-08T22:49:24.806Z,10.20
2022-10-08T22:51:53.156Z,10.20
2022-10-08T22:54:21.754Z,10.10
2022-10-08T22:56:50.153Z,10.00
2022-10-08T22:59:18.559Z,10.00
2022-10-08T23:01:49.435Z,10.00
2022-10-08T23:04:19.411Z,10.00
2022-10-08T23:06:47.723Z,10.00
2022-10-08T23:09:16.829Z,10.00
2022-10-08T23:11:45.469Z,9.90
2022-10-08T23:14:13.835Z,9.90
2022-10-08T23:16:42.465Z,9.80
2022-10-08T23:19:12.648Z,9.80
2022-10-08T23:21:44.466Z,9.70
2022-10-08T23:24:13.076Z,9.70
2022-10-08T23:26:41.595Z,9.70
2022-10-08T23:29:12.634Z,9.70
2022-10-08T23:31:41.381Z,9.70
2022-10-08T23:34:10.395Z,9.70
2022-10-08T23:36:43.177Z,9.60
2022-10-08T23:39:17.799Z,9.70
2022-10-08T23:41:46.570Z,9.60
2022-10-08T23:44:14.802Z,9.50
2022-10-08T23:46:43.137Z,9.60
2022-10-08T23:49:11.748Z,9.60
2022-10-08T23:51:40.292Z,9.50
2022-10-08T23:54:10.427Z,9.50
2022-10-08T23:56:38.786Z,9.50
2022-10-08T23:59:07.377Z,9.50
